createdAt,value
2017-12-30T00:00:31.574Z,3.8
2017-12-30T00:01:33.242Z,3.7
2017-12-30T00:02:34.792Z,3.6
2017-12-30T00:03:36.401Z,4.1
2017-12-30T00:04:38.007Z,3.8
2017-12-30T00:05:39.618Z,3.8
2017-12-30T00:06:41.306Z,3.5
2017-12-30T00:07:42.917Z,3.9
2017-12-30T00:08:44.654Z,3.7
2017-12-30T00:09:46.286Z,3.5
2017-12-30T00:10:47.895Z,3.8
2017-12-30T00:11:49.503Z,3.6
2017-12-30T00:12:52.275Z,3.9
2017-12-30T00:13:53.993Z,3.8
2017-12-30T00:14:55.605Z,3.4
2017-12-30T00:15:57.243Z,4.2
2017-12-30T00:16:58.855Z,3.3
2017-12-30T00:18:00.950Z,3.7
2017-12-30T00:19:04.339Z,3.3
2017-12-30T00:20:05.955Z,4.0
2017-12-30T00:21:07.559Z,3.5
2017-12-30T00:22:09.168Z,3.3
2017-12-30T00:23:10.778Z,3.8
2017-12-30T00:24:12.392Z,3.8
2017-12-30T00:25:14.197Z,3.6
2017-12-30T00:26:15.805Z,3.6
2017-12-30T00:27:18.443Z,3.5
2017-12-30T00:28:20.017Z,3.9
2017-12-30T00:29:23.070Z,3.7
2017-12-30T00:30:24.800Z,3.5
2017-12-30T00:31:26.491Z,3.8
2017-12-30T00:32:28.098Z,3.5
2017-12-30T00:33:29.709Z,3.7
2017-12-30T00:34:31.319Z,3.5
2017-12-30T00:35:32.932Z,3.5
2017-12-30T00:36:34.548Z,4.1
2017-12-30T00:37:36.156Z,4.0
2017-12-30T00:38:37.758Z,3.6
2017-12-30T00:39:39.366Z,3.8
2017-12-30T00:40:40.978Z,3.8
2017-12-30T00:41:42.588Z,3.6
2017-12-30T00:42:45.441Z,4.3
2017-12-30T00:43:47.055Z,3.7
2017-12-30T00:44:48.679Z,3.8
2017-12-30T00:45:50.510Z,4.3
2017-12-30T00:46:52.121Z,3.9
2017-12-30T00:47:53.725Z,3.7
2017-12-30T00:48:55.347Z,3.9
2017-12-30T00:49:56.956Z,3.5
2017-12-30T00:50:58.568Z,4.1
2017-12-30T00:52:00.180Z,4.5
2017-12-30T00:53:01.787Z,3.8
2017-12-30T00:54:03.398Z,3.8
2017-12-30T00:55:05.007Z,3.9
2017-12-30T00:56:06.620Z,3.8
2017-12-30T00:57:08.231Z,4.3
2017-12-30T00:58:09.841Z,4.2
2017-12-30T00:59:11.452Z,3.7
2017-12-30T01:00:13.063Z,4.0
2017-12-30T01:01:14.677Z,4.1
2017-12-30T01:02:16.285Z,4.0
2017-12-30T01:03:17.896Z,3.9
2017-12-30T01:04:19.505Z,4.1
2017-12-30T01:05:21.114Z,4.1
2017-12-30T01:06:22.729Z,3.7
2017-12-30T01:07:24.340Z,4.4
2017-12-30T01:08:25.946Z,3.9
2017-12-30T01:09:27.555Z,3.6
2017-12-30T01:10:29.163Z,3.8
2017-12-30T01:11:30.772Z,3.9
2017-12-30T01:12:32.383Z,3.8
2017-12-30T01:13:33.994Z,3.8
2017-12-30T01:14:35.608Z,3.9
2017-12-30T01:15:37.216Z,3.8
2017-12-30T01:16:38.823Z,4.4
2017-12-30T01:17:40.429Z,4.0
2017-12-30T01:18:42.047Z,3.8
2017-12-30T01:19:43.648Z,4.6
2017-12-30T01:20:45.260Z,3.8
2017-12-30T01:21:46.868Z,3.7
2017-12-30T01:22:48.478Z,3.9
2017-12-30T01:23:50.087Z,4.0
2017-12-30T01:24:51.698Z,3.7
2017-12-30T01:25:53.305Z,3.9
2017-12-30T01:26:55.012Z,4.0
2017-12-30T01:27:56.601Z,4.6
2017-12-30T01:28:58.210Z,4.0
2017-12-30T01:29:59.826Z,4.2
2017-12-30T01:31:01.429Z,3.5
2017-12-30T01:32:03.039Z,3.9
2017-12-30T01:33:04.646Z,4.0
2017-12-30T01:34:06.260Z,3.9
2017-12-30T01:35:07.866Z,4.2
2017-12-30T01:36:09.481Z,3.6
2017-12-30T01:37:11.089Z,3.5
2017-12-30T01:38:12.692Z,3.8
2017-12-30T01:39:14.303Z,4.1
2017-12-30T01:40:15.910Z,4.1
2017-12-30T01:41:17.521Z,3.9
2017-12-30T01:42:19.131Z,4.1
2017-12-30T01:43:20.740Z,4.2
2017-12-30T01:44:22.350Z,4.0
2017-12-30T01:45:23.965Z,3.5
2017-12-30T01:46:25.569Z,3.9
2017-12-30T01:47:27.178Z,4.3
2017-12-30T01:48:28.790Z,3.7
2017-12-30T01:49:30.406Z,3.7
2017-12-30T01:50:32.014Z,3.9
2017-12-30T01:51:33.625Z,4.1
2017-12-30T01:52:35.232Z,3.7
2017-12-30T01:53:36.840Z,3.6
2017-12-30T01:54:38.450Z,4.0
2017-12-30T01:55:40.060Z,3.7
2017-12-30T01:56:41.674Z,4.0
2017-12-30T01:57:43.281Z,4.0
2017-12-30T01:58:44.891Z,3.7
2017-12-30T01:59:46.501Z,3.7
2017-12-30T02:00:48.104Z,4.1
2017-12-30T02:01:49.713Z,3.5
2017-12-30T02:02:51.323Z,4.0
2017-12-30T02:03:52.936Z,3.8
2017-12-30T02:04:54.546Z,3.7
2017-12-30T02:05:56.154Z,4.2
2017-12-30T02:06:57.765Z,3.7
2017-12-30T02:07:59.373Z,4.2
2017-12-30T02:09:00.981Z,4.7
2017-12-30T02:10:02.593Z,4.4
2017-12-30T02:11:04.204Z,4.7
2017-12-30T02:12:05.813Z,4.6
2017-12-30T02:13:07.424Z,4.4
2017-12-30T02:14:09.033Z,4.1
2017-12-30T02:15:10.648Z,4.7
2017-12-30T02:16:12.257Z,4.1
2017-12-30T02:17:13.867Z,4.3
2017-12-30T02:18:15.475Z,3.8
2017-12-30T02:19:17.083Z,4.5
2017-12-30T02:20:18.691Z,4.4
2017-12-30T02:21:20.301Z,4.5
2017-12-30T02:22:21.910Z,4.6
2017-12-30T02:23:23.519Z,4.0
2017-12-30T02:24:25.130Z,4.2
2017-12-30T02:25:26.743Z,4.4
2017-12-30T02:26:28.353Z,5.0
2017-12-30T02:27:29.960Z,5.3
2017-12-30T02:28:31.571Z,4.0
2017-12-30T02:29:33.177Z,4.6
2017-12-30T02:30:34.788Z,4.8
2017-12-30T02:31:36.401Z,4.7
2017-12-30T02:32:38.012Z,4.7
2017-12-30T02:33:39.617Z,5.0
2017-12-30T02:34:41.227Z,5.0
2017-12-30T02:35:42.835Z,4.6
2017-12-30T02:36:44.443Z,4.6
2017-12-30T02:37:46.054Z,4.3
2017-12-30T02:38:47.666Z,4.2
2017-12-30T02:39:49.276Z,4.7
2017-12-30T02:40:50.883Z,4.9
2017-12-30T02:41:52.491Z,4.5
2017-12-30T02:42:54.103Z,4.5
2017-12-30T02:43:55.713Z,4.9
2017-12-30T02:44:57.323Z,4.4
2017-12-30T02:45:58.944Z,4.5
2017-12-30T02:47:00.557Z,4.7
2017-12-30T02:48:02.168Z,4.6
2017-12-30T02:49:03.776Z,4.5
2017-12-30T02:50:05.397Z,4.1
2017-12-30T02:51:07.005Z,4.6
2017-12-30T02:52:08.610Z,4.8
2017-12-30T02:53:10.215Z,4.6
2017-12-30T02:54:11.831Z,4.6
2017-12-30T02:55:13.439Z,4.1
2017-12-30T02:56:15.049Z,4.6
2017-12-30T02:57:16.657Z,4.6
2017-12-30T02:58:18.270Z,4.6
2017-12-30T02:59:19.879Z,4.1
2017-12-30T03:00:21.489Z,4.3
2017-12-30T03:01:23.105Z,4.5
2017-12-30T03:02:24.719Z,4.6
2017-12-30T03:03:26.329Z,4.5
2017-12-30T03:04:27.936Z,4.1
2017-12-30T03:05:29.546Z,4.0
2017-12-30T03:06:31.157Z,3.7
2017-12-30T03:07:32.770Z,4.0
2017-12-30T03:08:34.380Z,4.0
2017-12-30T03:09:35.988Z,4.2
2017-12-30T03:10:37.594Z,3.9
2017-12-30T03:11:39.202Z,4.3
2017-12-30T03:12:40.812Z,4.2
2017-12-30T03:13:42.422Z,3.6
2017-12-30T03:14:44.034Z,4.2
2017-12-30T03:15:45.645Z,4.5
2017-12-30T03:16:47.256Z,4.1
2017-12-30T03:17:48.863Z,4.2
2017-12-30T03:18:50.473Z,3.6
2017-12-30T03:19:52.080Z,3.9
2017-12-30T03:20:53.695Z,3.9
2017-12-30T03:21:55.302Z,4.0
2017-12-30T03:22:56.914Z,4.3
2017-12-30T03:23:58.521Z,4.2
2017-12-30T03:25:00.129Z,4.2
2017-12-30T03:26:01.738Z,4.5
2017-12-30T03:27:03.344Z,3.9
2017-12-30T03:28:04.994Z,4.4
2017-12-30T03:29:06.569Z,4.4
2017-12-30T03:30:08.184Z,4.4
2017-12-30T03:31:09.793Z,4.4
2017-12-30T03:32:11.398Z,4.9
2017-12-30T03:33:13.005Z,4.1
2017-12-30T03:34:14.614Z,4.6
2017-12-30T03:35:16.224Z,4.6
2017-12-30T03:36:17.836Z,4.8
2017-12-30T03:37:19.446Z,4.7
2017-12-30T03:38:21.056Z,4.7
2017-12-30T03:39:22.662Z,4.8
2017-12-30T03:40:24.268Z,4.8
2017-12-30T03:41:25.877Z,5.0
2017-12-30T03:42:27.486Z,4.7
2017-12-30T03:43:29.100Z,4.3
2017-12-30T03:44:30.710Z,5.0
2017-12-30T03:45:32.318Z,4.9
2017-12-30T03:46:33.926Z,4.8
2017-12-30T03:47:35.535Z,4.5
2017-12-30T03:48:37.144Z,4.5
2017-12-30T03:49:38.753Z,4.4
2017-12-30T03:50:40.363Z,4.2
2017-12-30T03:51:41.974Z,4.6
2017-12-30T03:52:43.583Z,4.2
2017-12-30T03:53:45.189Z,4.1
2017-12-30T03:54:46.799Z,4.6
2017-12-30T03:55:48.413Z,4.6
2017-12-30T03:56:50.022Z,4.4
2017-12-30T03:57:51.633Z,5.1
2017-12-30T03:58:53.244Z,4.2
2017-12-30T03:59:54.854Z,4.8
2017-12-30T04:00:56.462Z,5.1
2017-12-30T04:01:58.073Z,4.8
2017-12-30T04:02:59.684Z,4.7
2017-12-30T04:04:01.293Z,4.8
2017-12-30T04:05:02.905Z,4.8
2017-12-30T04:06:04.517Z,5.2
2017-12-30T04:07:06.127Z,4.1
2017-12-30T04:08:07.733Z,4.1
2017-12-30T04:09:09.341Z,4.6
2017-12-30T04:10:10.947Z,4.4
2017-12-30T04:11:12.557Z,4.3
2017-12-30T04:12:14.167Z,4.2
2017-12-30T04:13:15.773Z,4.5
2017-12-30T04:14:17.384Z,5.1
2017-12-30T04:15:18.995Z,4.4
2017-12-30T04:16:20.602Z,4.9
2017-12-30T04:17:22.213Z,3.9
2017-12-30T04:18:23.824Z,5.1
2017-12-30T04:19:25.433Z,3.8
2017-12-30T04:20:27.043Z,4.5
2017-12-30T04:21:28.658Z,5.0
2017-12-30T04:22:30.264Z,4.0
2017-12-30T04:23:31.872Z,4.7
2017-12-30T04:24:33.483Z,4.8
2017-12-30T04:25:35.096Z,5.0
2017-12-30T04:26:36.702Z,5.2
2017-12-30T04:27:38.315Z,4.7
2017-12-30T04:28:39.924Z,4.5
2017-12-30T04:29:41.534Z,4.7
2017-12-30T04:30:43.138Z,4.8
2017-12-30T04:31:44.747Z,5.0
2017-12-30T04:32:46.361Z,4.7
2017-12-30T04:33:47.972Z,4.8
2017-12-30T04:34:49.584Z,4.8
2017-12-30T04:35:51.190Z,4.6
2017-12-30T04:36:52.795Z,4.2
2017-12-30T04:37:54.408Z,4.4
2017-12-30T04:38:56.018Z,4.4
2017-12-30T04:39:57.626Z,4.9
2017-12-30T04:40:59.238Z,4.7
2017-12-30T04:42:00.848Z,4.8
2017-12-30T04:43:02.459Z,4.8
2017-12-30T04:44:04.067Z,4.4
2017-12-30T04:45:05.675Z,4.5
2017-12-30T04:46:07.280Z,4.6
2017-12-30T04:47:08.894Z,4.1
2017-12-30T04:48:10.504Z,4.9
2017-12-30T04:49:12.113Z,4.2
2017-12-30T04:50:13.722Z,4.5
2017-12-30T04:51:15.330Z,5.0
2017-12-30T04:52:16.936Z,5.1
2017-12-30T04:53:18.548Z,4.5
2017-12-30T04:54:20.161Z,4.6
2017-12-30T04:55:21.768Z,4.8
2017-12-30T04:56:23.378Z,4.7
2017-12-30T04:57:24.987Z,4.2
2017-12-30T04:58:26.593Z,4.1
2017-12-30T04:59:28.207Z,4.8
2017-12-30T05:00:29.814Z,4.8
2017-12-30T05:01:31.425Z,5.3
2017-12-30T05:02:33.036Z,4.4
2017-12-30T05:03:34.646Z,4.8
2017-12-30T05:04:36.254Z,5.3
2017-12-30T05:05:37.863Z,4.8
2017-12-30T05:06:39.471Z,4.7
2017-12-30T05:07:41.082Z,4.9
2017-12-30T05:08:42.692Z,5.0
2017-12-30T05:09:44.302Z,4.6
2017-12-30T05:10:45.911Z,4.8
2017-12-30T05:11:47.520Z,4.8
2017-12-30T05:12:49.124Z,4.7
2017-12-30T05:13:50.734Z,4.7
2017-12-30T05:14:52.345Z,4.9
2017-12-30T05:15:53.961Z,5.6
2017-12-30T05:16:55.567Z,5.0
2017-12-30T05:17:57.179Z,4.7
2017-12-30T05:18:58.788Z,4.6
2017-12-30T05:20:00.396Z,4.5
2017-12-30T05:21:02.009Z,5.2
2017-12-30T05:22:03.615Z,5.3
2017-12-30T05:23:05.225Z,4.5
2017-12-30T05:24:06.836Z,5.2
2017-12-30T05:25:08.447Z,4.7
2017-12-30T05:26:10.058Z,5.2
2017-12-30T05:27:11.665Z,4.9
2017-12-30T05:28:13.275Z,4.9
2017-12-30T05:29:14.882Z,4.3
2017-12-30T05:30:16.493Z,5.1
2017-12-30T05:31:18.104Z,4.8
2017-12-30T05:32:19.712Z,4.2
2017-12-30T05:33:21.324Z,5.4
2017-12-30T05:34:22.935Z,4.5
2017-12-30T05:35:24.540Z,5.1
2017-12-30T05:36:26.151Z,4.6
2017-12-30T05:37:27.763Z,4.6
2017-12-30T05:38:29.374Z,4.6
2017-12-30T05:39:30.986Z,4.8
2017-12-30T05:40:32.594Z,4.9
2017-12-30T05:41:34.202Z,5.1
2017-12-30T05:42:35.810Z,4.9
2017-12-30T05:43:37.420Z,5.2
2017-12-30T05:44:39.029Z,4.9
2017-12-30T05:45:40.640Z,4.9
2017-12-30T05:46:42.250Z,5.8
2017-12-30T05:47:43.858Z,5.3
2017-12-30T05:48:45.468Z,5.1
2017-12-30T05:49:47.077Z,5.6
2017-12-30T05:50:48.688Z,5.8
2017-12-30T05:51:50.288Z,5.5
2017-12-30T05:52:51.898Z,6.1
2017-12-30T05:53:53.510Z,5.8
2017-12-30T05:54:55.118Z,5.3
2017-12-30T05:55:56.726Z,5.2
2017-12-30T05:56:58.333Z,5.4
2017-12-30T05:57:59.944Z,5.9
2017-12-30T05:59:01.551Z,6.1
2017-12-30T06:00:03.163Z,5.9
2017-12-30T06:01:04.775Z,6.5
2017-12-30T06:02:06.386Z,6.4
2017-12-30T06:03:07.992Z,5.7
2017-12-30T06:04:09.598Z,6.8
2017-12-30T06:05:11.206Z,6.2
2017-12-30T06:06:12.817Z,5.9
2017-12-30T06:07:14.429Z,6.7
2017-12-30T06:08:16.043Z,7.1
2017-12-30T06:09:17.644Z,6.4
2017-12-30T06:10:19.247Z,6.2
2017-12-30T06:11:20.857Z,5.9
2017-12-30T06:12:22.475Z,6.6
2017-12-30T06:13:24.079Z,6.2
2017-12-30T06:14:25.696Z,6.4
2017-12-30T06:15:27.303Z,6.8
2017-12-30T06:16:28.910Z,6.5
2017-12-30T06:17:30.517Z,6.6
2017-12-30T06:18:32.125Z,7.3
2017-12-30T06:19:33.737Z,6.8
2017-12-30T06:20:35.343Z,6.9
2017-12-30T06:21:36.958Z,6.5
2017-12-30T06:22:38.566Z,6.1
2017-12-30T06:23:40.174Z,7.4
2017-12-30T06:24:41.781Z,8.0
2017-12-30T06:25:43.390Z,6.8
2017-12-30T06:26:44.999Z,7.4
2017-12-30T06:27:46.611Z,6.8
2017-12-30T06:28:48.223Z,7.8
2017-12-30T06:29:49.835Z,7.2
2017-12-30T06:30:51.438Z,7.0
2017-12-30T06:31:53.048Z,7.7
2017-12-30T06:32:54.655Z,7.3
2017-12-30T06:33:56.265Z,7.3
2017-12-30T06:34:57.876Z,7.0
2017-12-30T06:35:59.488Z,7.3
2017-12-30T06:37:01.097Z,7.4
2017-12-30T06:38:02.709Z,7.8
2017-12-30T06:39:04.317Z,7.1
2017-12-30T06:40:05.925Z,7.2
2017-12-30T06:41:07.540Z,7.6
2017-12-30T06:42:09.148Z,7.2
2017-12-30T06:43:10.757Z,7.4
2017-12-30T06:44:12.364Z,7.6
2017-12-30T06:45:13.972Z,7.1
2017-12-30T06:46:15.579Z,7.3
2017-12-30T06:47:17.189Z,7.6
2017-12-30T06:48:18.798Z,8.0
2017-12-30T06:49:20.407Z,7.6
2017-12-30T06:50:22.017Z,7.3
2017-12-30T06:51:23.626Z,7.0
2017-12-30T06:52:25.234Z,6.9
2017-12-30T06:53:26.842Z,6.3
2017-12-30T06:54:28.451Z,6.9
2017-12-30T06:55:30.063Z,6.7
2017-12-30T06:56:31.671Z,6.4
2017-12-30T06:57:33.282Z,6.3
2017-12-30T06:58:34.887Z,6.9
2017-12-30T06:59:36.496Z,6.6
2017-12-30T07:00:38.108Z,6.1
2017-12-30T07:01:39.712Z,5.8
2017-12-30T07:02:41.324Z,5.3
2017-12-30T07:03:42.960Z,5.9
2017-12-30T07:04:44.571Z,6.0
2017-12-30T07:05:46.193Z,5.7
2017-12-30T07:06:47.800Z,6.0
2017-12-30T07:07:49.408Z,5.6
2017-12-30T07:08:51.021Z,5.6
2017-12-30T07:09:52.635Z,5.4
2017-12-30T07:10:54.274Z,5.9
2017-12-30T07:11:55.900Z,5.9
2017-12-30T07:12:57.537Z,5.8
2017-12-30T07:13:59.153Z,6.3
2017-12-30T07:15:00.762Z,6.2
2017-12-30T07:16:02.373Z,6.0
2017-12-30T07:17:04.014Z,6.0
2017-12-30T07:18:05.633Z,6.0
2017-12-30T07:19:07.279Z,6.5
2017-12-30T07:20:08.907Z,6.2
2017-12-30T07:21:10.518Z,6.3
2017-12-30T07:22:12.135Z,5.9
2017-12-30T07:23:13.735Z,5.8
2017-12-30T07:24:15.345Z,5.4
2017-12-30T07:25:16.955Z,6.8
2017-12-30T07:26:18.566Z,6.7
2017-12-30T07:27:20.178Z,6.2
2017-12-30T07:28:21.785Z,6.3
2017-12-30T07:29:23.438Z,6.3
2017-12-30T07:30:25.005Z,6.8
2017-12-30T07:31:26.617Z,6.7
2017-12-30T07:32:28.220Z,6.7
2017-12-30T07:33:29.830Z,7.1
2017-12-30T07:34:31.443Z,6.9
2017-12-30T07:35:33.052Z,7.1
2017-12-30T07:36:34.664Z,7.1
2017-12-30T07:37:36.270Z,7.3
2017-12-30T07:38:37.879Z,6.8
2017-12-30T07:39:39.487Z,7.1
2017-12-30T07:40:41.106Z,7.0
2017-12-30T07:41:42.718Z,6.3
2017-12-30T07:42:44.326Z,6.2
2017-12-30T07:43:45.937Z,6.6
2017-12-30T07:44:47.543Z,6.5
2017-12-30T07:45:49.155Z,7.4
2017-12-30T07:46:50.769Z,7.1
2017-12-30T07:47:52.374Z,6.3
2017-12-30T07:48:53.984Z,6.3
2017-12-30T07:49:55.594Z,6.6
2017-12-30T07:50:57.205Z,7.2
2017-12-30T07:51:58.816Z,6.8
2017-12-30T07:53:00.426Z,7.1
2017-12-30T07:54:02.036Z,7.4
2017-12-30T07:55:03.648Z,7.0
2017-12-30T07:56:05.259Z,6.4
2017-12-30T07:57:06.866Z,6.4
2017-12-30T07:58:08.476Z,6.9
2017-12-30T07:59:10.087Z,6.9
2017-12-30T08:00:11.704Z,6.3
2017-12-30T08:01:13.306Z,6.6
2017-12-30T08:02:14.916Z,6.9
2017-12-30T08:03:16.534Z,6.9
2017-12-30T08:04:18.142Z,6.8
2017-12-30T08:05:19.752Z,6.9
2017-12-30T08:06:21.363Z,6.4
2017-12-30T08:07:22.973Z,5.8
2017-12-30T08:08:24.592Z,5.7
2017-12-30T08:09:26.198Z,6.4
2017-12-30T08:10:27.811Z,6.4
2017-12-30T08:11:29.422Z,5.9
2017-12-30T08:12:31.030Z,6.2
2017-12-30T08:13:32.643Z,6.4
2017-12-30T08:14:34.255Z,5.5
2017-12-30T08:15:35.866Z,6.1
2017-12-30T08:16:37.479Z,5.9
2017-12-30T08:17:39.092Z,6.1
2017-12-30T08:18:40.712Z,6.0
2017-12-30T08:19:42.312Z,5.3
2017-12-30T08:20:43.924Z,5.3
2017-12-30T08:21:45.532Z,5.2
2017-12-30T08:22:47.145Z,5.1
2017-12-30T08:23:48.760Z,5.2
2017-12-30T08:24:50.382Z,4.5
2017-12-30T08:25:51.981Z,4.3
2017-12-30T08:26:53.598Z,5.1
2017-12-30T08:27:55.208Z,4.5
2017-12-30T08:28:57.344Z,5.5
2017-12-30T08:29:58.923Z,4.8
2017-12-30T08:31:00.541Z,4.5
2017-12-30T08:32:02.151Z,4.8
2017-12-30T08:33:03.760Z,4.4
2017-12-30T08:34:05.369Z,4.7
2017-12-30T08:35:06.980Z,4.2
2017-12-30T08:36:08.598Z,5.2
2017-12-30T08:37:10.209Z,4.1
2017-12-30T08:38:11.823Z,4.0
2017-12-30T08:39:13.438Z,4.9
2017-12-30T08:40:15.050Z,4.5
2017-12-30T08:41:16.661Z,4.1
2017-12-30T08:42:18.272Z,4.9
2017-12-30T08:43:19.885Z,4.1
2017-12-30T08:44:21.515Z,4.3
2017-12-30T08:45:23.126Z,3.9
2017-12-30T08:46:24.740Z,4.3
2017-12-30T08:47:26.353Z,4.1
2017-12-30T08:48:27.966Z,4.7
2017-12-30T08:49:29.580Z,4.5
2017-12-30T08:50:31.199Z,4.1
2017-12-30T08:51:32.805Z,4.2
2017-12-30T08:52:34.423Z,4.2
2017-12-30T08:53:36.032Z,4.4
2017-12-30T08:54:37.659Z,4.5
2017-12-30T08:55:39.266Z,4.4
2017-12-30T08:56:40.879Z,4.1
2017-12-30T08:57:42.492Z,4.4
2017-12-30T08:58:44.107Z,4.5
2017-12-30T08:59:45.720Z,3.9
2017-12-30T09:00:47.669Z,3.8
2017-12-30T09:01:49.273Z,4.2
2017-12-30T09:02:50.909Z,3.9
2017-12-30T09:03:52.528Z,3.9
2017-12-30T09:04:54.153Z,4.0
2017-12-30T09:05:55.777Z,4.2
2017-12-30T09:06:57.388Z,4.3
2017-12-30T09:07:59.118Z,4.4
2017-12-30T09:09:00.753Z,4.4
2017-12-30T09:10:02.367Z,3.4
2017-12-30T09:11:03.975Z,3.7
2017-12-30T09:12:05.589Z,3.7
2017-12-30T09:13:07.199Z,3.5
2017-12-30T09:14:08.814Z,3.4
2017-12-30T09:15:10.425Z,3.7
2017-12-30T09:16:12.035Z,3.8
2017-12-30T09:17:13.683Z,3.9
2017-12-30T09:18:15.299Z,3.9
2017-12-30T09:19:16.924Z,4.3
2017-12-30T09:20:18.534Z,4.5
2017-12-30T09:21:20.151Z,4.2
2017-12-30T09:22:21.811Z,4.3
2017-12-30T09:23:23.425Z,3.7
2017-12-30T09:24:25.034Z,4.5
2017-12-30T09:25:26.646Z,4.5
2017-12-30T09:26:28.261Z,4.4
2017-12-30T09:27:29.875Z,4.7
2017-12-30T09:28:31.486Z,3.9
2017-12-30T09:29:33.114Z,4.2
2017-12-30T09:30:34.742Z,4.1
2017-12-30T09:31:36.337Z,4.1
2017-12-30T09:32:37.948Z,4.1
2017-12-30T09:33:39.560Z,4.6
2017-12-30T09:34:41.172Z,4.2
2017-12-30T09:35:42.783Z,4.8
2017-12-30T09:36:44.396Z,4.6
2017-12-30T09:37:46.008Z,4.5
2017-12-30T09:38:47.619Z,4.7
2017-12-30T09:39:49.231Z,5.2
2017-12-30T09:40:50.844Z,5.6
2017-12-30T09:41:52.455Z,5.2
2017-12-30T09:42:54.070Z,5.5
2017-12-30T09:43:55.685Z,5.8
2017-12-30T09:44:57.297Z,6.4
2017-12-30T09:45:58.908Z,6.1
2017-12-30T09:47:00.519Z,6.3
2017-12-30T09:48:02.132Z,6.8
2017-12-30T09:49:03.750Z,6.1
2017-12-30T09:50:05.362Z,5.7
2017-12-30T09:51:06.977Z,6.0
2017-12-30T09:52:08.590Z,6.3
2017-12-30T09:53:10.202Z,5.7
2017-12-30T09:54:11.810Z,6.4
2017-12-30T09:55:13.423Z,6.2
2017-12-30T09:56:15.034Z,6.2
2017-12-30T09:57:16.647Z,6.5
2017-12-30T09:58:18.261Z,6.7
2017-12-30T09:59:19.872Z,7.1
2017-12-30T10:00:21.484Z,7.5
2017-12-30T10:01:23.100Z,6.7
2017-12-30T10:02:24.709Z,6.4
2017-12-30T10:03:26.325Z,6.2
2017-12-30T10:04:27.939Z,6.5
2017-12-30T10:05:29.553Z,6.0
2017-12-30T10:06:31.165Z,6.1
2017-12-30T10:07:32.781Z,6.3
2017-12-30T10:08:34.391Z,6.6
2017-12-30T10:09:36.004Z,7.2
2017-12-30T10:10:37.611Z,7.1
2017-12-30T10:11:39.228Z,6.9
2017-12-30T10:12:40.843Z,8.1
2017-12-30T10:13:42.456Z,7.6
2017-12-30T10:14:44.066Z,7.4
2017-12-30T10:15:45.678Z,7.0
2017-12-30T10:16:47.295Z,7.5
2017-12-30T10:17:48.906Z,7.8
2017-12-30T10:18:50.520Z,8.0
2017-12-30T10:19:52.133Z,8.0
2017-12-30T10:20:53.754Z,7.5
2017-12-30T10:21:55.365Z,8.3
2017-12-30T10:22:56.977Z,7.9
2017-12-30T10:23:58.590Z,7.8
2017-12-30T10:25:00.204Z,7.7
2017-12-30T10:26:01.817Z,7.1
2017-12-30T10:27:03.435Z,7.7
2017-12-30T10:28:05.045Z,7.5
2017-12-30T10:29:06.661Z,7.5
2017-12-30T10:30:08.274Z,7.8
2017-12-30T10:31:09.888Z,7.7
2017-12-30T10:32:11.501Z,8.0
2017-12-30T10:33:13.117Z,7.9
2017-12-30T10:34:14.730Z,7.5
2017-12-30T10:35:16.342Z,8.5
2017-12-30T10:36:17.953Z,8.2
2017-12-30T10:37:19.564Z,8.3
2017-12-30T10:38:21.177Z,8.2
2017-12-30T10:39:22.791Z,8.7
2017-12-30T10:40:24.404Z,8.3
2017-12-30T10:41:26.018Z,8.3
2017-12-30T10:42:27.630Z,8.1
2017-12-30T10:43:29.238Z,8.0
2017-12-30T10:44:30.851Z,8.1
2017-12-30T10:45:32.464Z,9.4
2017-12-30T10:46:34.083Z,8.5
2017-12-30T10:47:35.696Z,9.9
2017-12-30T10:48:37.312Z,9.6
2017-12-30T10:49:38.923Z,9.3
2017-12-30T10:50:40.535Z,9.0
2017-12-30T10:51:42.173Z,8.9
2017-12-30T10:52:43.860Z,9.0
2017-12-30T10:53:45.385Z,8.7
2017-12-30T10:54:47.001Z,10.3
2017-12-30T10:55:48.611Z,10.2
2017-12-30T10:56:50.223Z,8.5
2017-12-30T10:57:51.843Z,8.3
2017-12-30T10:58:53.461Z,8.5
2017-12-30T10:59:55.078Z,8.8
2017-12-30T11:00:56.691Z,7.9
2017-12-30T11:01:58.306Z,8.0
2017-12-30T11:02:59.921Z,8.1
2017-12-30T11:04:01.532Z,8.2
2017-12-30T11:05:03.146Z,7.5
2017-12-30T11:06:04.758Z,8.2
2017-12-30T11:07:06.372Z,7.8
2017-12-30T11:08:07.986Z,7.6
2017-12-30T11:09:09.616Z,7.6
2017-12-30T11:10:11.224Z,7.8
2017-12-30T11:11:12.835Z,7.6
2017-12-30T11:12:14.448Z,7.9
2017-12-30T11:13:16.063Z,7.6
2017-12-30T11:14:17.677Z,9.9
2017-12-30T11:15:19.293Z,11.5
2017-12-30T11:16:20.918Z,12.3
2017-12-30T11:17:22.531Z,8.2
2017-12-30T11:18:24.143Z,8.7
2017-12-30T11:19:25.753Z,8.0
2017-12-30T11:20:27.368Z,7.5
2017-12-30T11:21:28.987Z,7.6
2017-12-30T11:22:30.602Z,7.8
2017-12-30T11:23:32.214Z,9.4
2017-12-30T11:24:33.830Z,9.7
2017-12-30T11:25:35.443Z,9.4
2017-12-30T11:26:37.063Z,10.3
2017-12-30T11:27:38.672Z,9.8
2017-12-30T11:28:40.286Z,11.7
2017-12-30T11:29:41.903Z,11.9
2017-12-30T11:30:43.520Z,9.9
2017-12-30T11:31:45.138Z,10.0
2017-12-30T11:32:46.752Z,10.2
2017-12-30T11:33:48.366Z,8.9
2017-12-30T11:34:49.980Z,8.9
2017-12-30T11:35:51.594Z,9.8
2017-12-30T11:36:53.208Z,9.1
2017-12-30T11:37:54.821Z,8.8
2017-12-30T11:38:56.438Z,8.7
2017-12-30T11:39:58.062Z,9.4
2017-12-30T11:40:59.674Z,8.2
2017-12-30T11:42:01.290Z,8.3
2017-12-30T11:43:02.907Z,8.3
2017-12-30T11:44:04.527Z,8.8
2017-12-30T11:45:06.135Z,9.4
2017-12-30T11:46:07.750Z,9.5
2017-12-30T11:47:09.369Z,11.0
2017-12-30T11:48:10.981Z,11.6
2017-12-30T11:49:12.599Z,11.8
2017-12-30T11:50:14.219Z,14.2
2017-12-30T11:51:15.833Z,11.6
2017-12-30T11:52:17.455Z,11.6
2017-12-30T11:53:19.071Z,11.6
2017-12-30T11:54:20.699Z,13.2
2017-12-30T11:55:22.323Z,12.3
2017-12-30T11:56:24.002Z,13.6
2017-12-30T11:57:25.616Z,13.8
2017-12-30T11:58:27.236Z,13.5
2017-12-30T11:59:28.869Z,14.0
2017-12-30T12:00:30.482Z,14.1
2017-12-30T12:01:32.097Z,14.0
2017-12-30T12:02:33.709Z,15.4
2017-12-30T12:03:35.327Z,15.2
2017-12-30T12:04:36.950Z,15.6
2017-12-30T12:05:38.565Z,14.0
2017-12-30T12:06:40.184Z,13.1
2017-12-30T12:07:41.803Z,14.0
2017-12-30T12:08:43.419Z,13.5
2017-12-30T12:09:45.037Z,13.6
2017-12-30T12:10:46.653Z,13.7
2017-12-30T12:11:48.270Z,13.6
2017-12-30T12:12:49.893Z,13.5
2017-12-30T12:13:51.512Z,13.6
2017-12-30T12:14:53.142Z,12.7
2017-12-30T12:15:54.755Z,13.3
2017-12-30T12:16:56.365Z,13.8
2017-12-30T12:17:57.977Z,12.5
2017-12-30T12:18:59.603Z,12.7
2017-12-30T12:20:01.224Z,11.9
2017-12-30T12:21:02.954Z,12.5
2017-12-30T12:22:04.563Z,12.7
2017-12-30T12:23:06.242Z,12.5
2017-12-30T12:24:07.861Z,12.4
2017-12-30T12:25:09.479Z,12.3
2017-12-30T12:26:11.099Z,12.3
2017-12-30T12:27:12.718Z,11.9
2017-12-30T12:28:14.338Z,11.7
2017-12-30T12:29:15.961Z,13.2
2017-12-30T12:30:17.579Z,12.2
2017-12-30T12:31:19.199Z,11.4
2017-12-30T12:32:20.817Z,12.9
2017-12-30T12:33:22.437Z,12.5
2017-12-30T12:34:24.054Z,12.1
2017-12-30T12:35:25.676Z,11.6
2017-12-30T12:36:27.301Z,12.7
2017-12-30T12:37:28.921Z,12.7
2017-12-30T12:38:30.537Z,13.1
2017-12-30T12:39:32.151Z,12.4
2017-12-30T12:40:33.772Z,13.0
2017-12-30T12:41:35.390Z,13.0
2017-12-30T12:42:37.009Z,14.5
2017-12-30T12:43:38.635Z,13.0
2017-12-30T12:44:40.251Z,15.2
2017-12-30T12:45:41.885Z,14.1
2017-12-30T12:46:43.493Z,14.3
2017-12-30T12:47:45.114Z,13.5
2017-12-30T12:48:46.736Z,13.8
2017-12-30T12:49:48.352Z,13.2
2017-12-30T12:50:49.975Z,13.1
2017-12-30T12:51:51.593Z,14.4
2017-12-30T12:52:53.210Z,14.9
2017-12-30T12:53:54.831Z,14.9
2017-12-30T12:54:56.452Z,13.7
2017-12-30T12:55:58.070Z,13.0
2017-12-30T12:56:59.691Z,15.2
2017-12-30T12:58:01.313Z,14.0
2017-12-30T12:59:02.931Z,13.3
2017-12-30T13:00:04.550Z,14.4
2017-12-30T13:01:06.172Z,13.2
2017-12-30T13:02:07.792Z,13.3
2017-12-30T13:03:09.410Z,13.4
2017-12-30T13:04:11.034Z,14.0
2017-12-30T13:05:12.651Z,14.3
2017-12-30T13:06:14.269Z,13.5
2017-12-30T13:07:15.893Z,15.3
2017-12-30T13:08:17.513Z,14.5
2017-12-30T13:09:19.131Z,13.8
2017-12-30T13:10:20.753Z,13.8
2017-12-30T13:11:22.372Z,13.2
2017-12-30T13:12:23.993Z,14.4
2017-12-30T13:13:25.613Z,14.0
2017-12-30T13:14:27.230Z,13.8
2017-12-30T13:15:28.857Z,13.9
2017-12-30T13:16:30.474Z,14.2
2017-12-30T13:17:32.096Z,14.1
2017-12-30T13:18:33.720Z,14.3
2017-12-30T13:19:35.344Z,14.5
2017-12-30T13:20:36.960Z,14.6
2017-12-30T13:21:38.581Z,13.6
2017-12-30T13:22:40.198Z,14.7
2017-12-30T13:23:41.823Z,14.1
2017-12-30T13:24:43.441Z,15.1
2017-12-30T13:25:45.064Z,14.2
2017-12-30T13:26:46.694Z,15.1
2017-12-30T13:27:48.314Z,14.7
2017-12-30T13:28:49.931Z,14.8
2017-12-30T13:29:51.552Z,15.3
2017-12-30T13:30:53.191Z,15.0
2017-12-30T13:31:54.791Z,14.4
2017-12-30T13:32:56.413Z,14.9
2017-12-30T13:33:58.034Z,15.8
2017-12-30T13:34:59.659Z,13.3
2017-12-30T13:36:01.272Z,15.2
2017-12-30T13:37:02.890Z,15.6
2017-12-30T13:38:04.514Z,14.2
2017-12-30T13:39:06.181Z,14.6
2017-12-30T13:40:07.754Z,14.3
2017-12-30T13:41:09.379Z,14.6
2017-12-30T13:42:11.012Z,15.3
2017-12-30T13:43:12.633Z,14.6
2017-12-30T13:44:14.253Z,14.6
2017-12-30T13:45:15.877Z,14.8
2017-12-30T13:46:17.497Z,15.0
2017-12-30T13:47:19.119Z,14.3
2017-12-30T13:48:20.738Z,14.6
2017-12-30T13:49:22.361Z,13.8
2017-12-30T13:50:23.981Z,13.8
2017-12-30T13:51:25.595Z,14.6
2017-12-30T13:52:27.225Z,14.4
2017-12-30T13:53:28.846Z,14.9
2017-12-30T13:54:30.464Z,14.4
2017-12-30T13:55:32.087Z,15.1
2017-12-30T13:56:33.706Z,14.7
2017-12-30T13:57:35.325Z,13.9
2017-12-30T13:58:36.945Z,13.5
2017-12-30T13:59:38.566Z,13.7
2017-12-30T14:00:40.188Z,14.4
2017-12-30T14:01:41.821Z,14.7
2017-12-30T14:02:43.434Z,13.9
2017-12-30T14:03:45.052Z,13.0